Time;durP1;ratioP1;P1;durP2;ratioP2;P2;SDS_P1;SDS_P2;PMS_P1;PMS_P2;Temp;Humidity;BMP_temperature;BMP_pressure;BME280_temperature;BME280_humidity;BME280_pressure;Samples;Min_cycle;Max_cycle;Signal;HPM_P1;HPM_P2
2023/05/11 00:00:17;;;;;;;5.63;2.10;;;16.50;99.90;;;;;;5027672;28;20195;-73
2023/05/11 00:02:48;;;;;;;5.47;1.80;;;16.70;99.90;;;;;;5033071;28;20251;-73
2023/05/11 00:05:19;;;;;;;3.45;1.58;;;16.80;99.90;;;;;;5034192;28;20195;-74
2023/05/11 00:07:50;;;;;;;7.10;1.80;;;16.90;99.90;;;;;;5053935;28;20235;-75
2023/05/11 00:10:21;;;;;;;5.35;1.70;;;17.00;99.90;;;;;;5043250;28;20201;-75
2023/05/11 00:12:54;;;;;;;6.35;2.35;;;17.10;99.90;;;;;;5034027;28;20190;-74
2023/05/11 00:15:26;;;;;;;5.65;1.90;;;17.20;99.90;;;;;;5014304;28;20187;-74
2023/05/11 00:17:57;;;;;;;4.85;1.77;;;17.30;99.90;;;;;;5034864;28;20213;-74
2023/05/11 00:20:28;;;;;;;6.10;1.60;;;17.40;99.90;;;;;;5033257;28;20206;-74
2023/05/11 00:22:59;;;;;;;3.75;1.58;;;17.60;99.90;;;;;;5032680;28;20199;-74
2023/05/11 00:25:30;;;;;;;3.85;1.58;;;17.70;99.90;;;;;;5030649;28;20205;-75
2023/05/11 00:28:03;;;;;;;3.83;1.70;;;17.70;99.90;;;;;;5036955;28;20227;-75
2023/05/11 00:30:34;;;;;;;2.78;1.50;;;17.90;99.90;;;;;;5030154;28;20194;-75
2023/05/11 00:33:05;;;;;;;5.43;1.52;;;17.90;99.90;;;;;;5039222;28;20252;-75
2023/05/11 00:35:36;;;;;;;6.00;1.70;;;18.00;99.90;;;;;;5030582;28;20190;-74
2023/05/11 00:38:08;;;;;;;4.50;1.50;;;18.10;99.90;;;;;;5032904;28;20202;-75
2023/05/11 00:40:39;;;;;;;3.47;1.52;;;18.20;99.90;;;;;;5032895;28;20194;-74
2023/05/11 00:43:12;;;;;;;5.07;1.75;;;18.30;99.90;;;;;;5043853;28;20649;-75
2023/05/11 00:45:46;;;;;;;4.13;1.70;;;18.40;99.90;;;;;;5015048;28;20195;-73
2023/05/11 00:48:19;;;;;;;7.05;1.60;;;18.50;99.90;;;;;;5032861;28;20198;-75
2023/05/11 00:50:50;;;;;;;4.47;1.40;;;18.70;99.90;;;;;;5032346;28;20204;-73
2023/05/11 00:53:21;;;;;;;4.25;1.33;;;18.70;99.90;;;;;;5035576;28;20553;-72
2023/05/11 00:55:52;;;;;;;3.17;1.23;;;18.80;99.90;;;;;;5019433;28;20208;-73
2023/05/11 00:58:26;;;;;;;5.72;1.30;;;18.90;99.90;;;;;;5047222;28;20257;-72
2023/05/11 01:00:57;;;;;;;6.15;1.30;;;18.90;99.90;;;;;;5030585;28;20190;-73
2023/05/11 01:03:28;;;;;;;3.05;1.20;;;18.90;99.90;;;;;;5031950;28;20198;-74
2023/05/11 01:06:10;;;;;;;2.42;1.13;;;19.00;99.90;;;;;;5032093;28;20273;-74
2023/05/11 01:08:48;;;;;;;3.13;1.42;;;19.10;99.90;;;;;;5032625;28;20193;-76
2023/05/11 01:11:23;;;;;;;3.42;2.10;;;19.10;99.90;;;;;;5029582;28;20194;-74
2023/05/11 01:14:01;;;;;;;3.65;1.30;;;19.10;99.90;;;;;;5038565;28;20200;-74
2023/05/11 01:16:37;;;;;;;3.78;1.27;;;19.30;99.90;;;;;;5032933;28;20212;-74
2023/05/11 01:19:20;;;;;;;3.97;1.50;;;19.30;99.90;;;;;;5033573;28;20280;-74
2023/05/11 01:21:52;;;;;;;2.53;1.27;;;19.40;99.90;;;;;;5033423;28;20217;-74
2023/05/11 01:24:47;;;;;;;3.38;1.13;;;19.40;99.90;;;;;;5033334;28;20273;-74
2023/05/11 01:27:41;;;;;;;5.68;1.33;;;19.50;99.90;;;;;;5032247;28;20229;-74
2023/05/11 01:30:42;;;;;;;5.72;1.40;;;19.60;99.90;;;;;;5033413;28;20198;-74
2023/05/11 01:33:16;;;;;;;4.75;1.23;;;19.70;99.90;;;;;;5021707;28;20202;-74
2023/05/11 01:35:53;;;;;;;7.07;2.08;;;19.70;99.90;;;;;;5033193;28;20195;-74
2023/05/11 01:38:27;;;;;;;6.78;1.80;;;19.80;99.90;;;;;;5033335;28;20602;-74
2023/05/11 01:41:00;;;;;;;2.10;1.13;;;19.80;99.90;;;;;;5033039;28;20268;-73
2023/05/11 01:43:36;;;;;;;2.45;1.13;;;19.90;99.90;;;;;;5033525;28;20239;-73
2023/05/11 01:46:12;;;;;;;3.83;1.27;;;19.90;99.90;;;;;;5033162;28;20201;-75
2023/05/11 01:48:48;;;;;;;5.45;1.30;;;20.00;99.90;;;;;;5030134;28;20221;-75
2023/05/11 01:51:20;;;;;;;5.38;1.20;;;20.10;99.90;;;;;;5033135;28;20186;-74
2023/05/11 01:53:53;;;;;;;3.00;1.30;;;20.20;99.90;;;;;;5033143;28;20210;-73
2023/05/11 01:56:26;;;;;;;3.25;1.27;;;20.20;99.90;;;;;;5031004;28;20204;-74
2023/05/11 01:58:58;;;;;;;7.15;1.35;;;20.20;99.90;;;;;;5031859;28;20622;-73
2023/05/11 02:01:32;;;;;;;4.70;1.23;;;20.30;99.90;;;;;;5033058;28;20194;-74
2023/05/11 02:04:06;;;;;;;4.65;1.35;;;20.40;99.90;;;;;;5033064;28;20648;-72
2023/05/11 02:06:38;;;;;;;4.10;1.30;;;20.40;99.90;;;;;;5033028;28;20217;-72
2023/05/11 02:09:12;;;;;;;4.53;1.15;;;20.30;99.90;;;;;;5032790;28;20191;-73
2023/05/11 02:11:44;;;;;;;4.68;1.20;;;20.20;99.90;;;;;;5032974;28;20197;-73
2023/05/11 02:14:17;;;;;;;7.45;1.20;;;20.00;99.90;;;;;;5032901;28;20273;-73
2023/05/11 02:16:52;;;;;;;8.35;1.30;;;19.90;99.90;;;;;;5032972;28;20201;-72
2023/05/11 02:19:23;;;;;;;3.47;1.25;;;20.00;99.90;;;;;;5033024;28;20244;-74
2023/05/11 02:21:57;;;;;;;3.38;1.00;;;20.00;99.90;;;;;;5032828;28;20202;-74
2023/05/11 02:24:31;;;;;;;4.90;1.08;;;20.00;99.90;;;;;;5032791;28;20368;-74
2023/05/11 02:27:03;;;;;;;4.95;1.20;;;20.10;99.90;;;;;;5033457;28;20228;-74
2023/05/11 02:29:34;;;;;;;3.72;1.13;;;20.20;99.90;;;;;;5032828;28;20194;-72
2023/05/11 02:32:14;;;;;;;4.47;1.15;;;20.40;99.90;;;;;;5032802;28;20193;-73
2023/05/11 02:34:49;;;;;;;3.78;1.13;;;20.40;99.90;;;;;;5033052;28;20190;-73
2023/05/11 02:37:25;;;;;;;3.10;0.90;;;20.40;99.90;;;;;;5032655;28;20198;-73
2023/05/11 02:40:06;;;;;;;3.88;1.00;;;20.60;99.90;;;;;;5036222;28;20212;-73
2023/05/11 02:42:40;;;;;;;3.80;1.10;;;20.50;99.90;;;;;;5036455;28;20211;-72
2023/05/11 02:45:13;;;;;;;2.33;0.95;;;20.60;99.90;;;;;;5036363;28;20195;-72
2023/05/11 02:47:49;;;;;;;3.50;0.85;;;20.70;99.90;;;;;;5036316;28;20222;-72
2023/05/11 02:50:23;;;;;;;2.40;0.80;;;20.80;99.90;;;;;;5036153;28;20244;-72
2023/05/11 02:52:57;;;;;;;5.85;1.13;;;20.90;99.90;;;;;;5035902;28;20197;-73
2023/05/11 02:55:30;;;;;;;4.72;1.25;;;20.90;99.90;;;;;;5036142;28;20212;-73
2023/05/11 02:58:01;;;;;;;5.45;1.05;;;21.00;99.90;;;;;;5036067;28;20698;-73
2023/05/11 03:00:33;;;;;;;4.35;1.20;;;21.00;99.90;;;;;;5035988;28;20684;-73
2023/05/11 03:03:06;;;;;;;5.05;1.40;;;21.00;99.90;;;;;;5036020;28;20186;-73
2023/05/11 03:05:37;;;;;;;3.42;1.27;;;21.00;99.90;;;;;;5035931;28;20191;-73
2023/05/11 03:08:09;;;;;;;4.80;1.20;;;20.90;99.90;;;;;;5035675;28;20222;-73
2023/05/11 03:10:40;;;;;;;2.28;1.00;;;20.90;99.90;;;;;;5035794;28;20199;-73
2023/05/11 03:13:12;;;;;;;2.78;1.20;;;20.80;99.90;;;;;;5035826;28;20191;-74
2023/05/11 03:15:44;;;;;;;3.33;1.17;;;20.70;99.90;;;;;;5035836;28;20634;-73
2023/05/11 03:18:20;;;;;;;7.07;1.42;;;20.80;99.90;;;;;;5035670;28;20191;-73
2023/05/11 03:20:53;;;;;;;2.40;0.80;;;20.80;99.90;;;;;;5035723;28;20198;-73
2023/05/11 03:23:25;;;;;;;3.33;1.13;;;20.90;99.90;;;;;;5035457;28;20194;-73
2023/05/11 03:25:56;;;;;;;3.47;1.20;;;21.00;99.90;;;;;;5035517;28;20642;-73
2023/05/11 03:28:29;;;;;;;5.03;1.10;;;21.00;99.90;;;;;;5035865;28;20628;-73
2023/05/11 03:31:00;;;;;;;2.03;1.15;;;21.10;99.90;;;;;;5035440;28;20265;-73
2023/05/11 03:33:34;;;;;;;2.90;1.17;;;21.00;99.90;;;;;;5035437;28;20269;-73
2023/05/11 03:36:07;;;;;;;5.15;1.13;;;21.00;99.90;;;;;;5035162;28;20560;-73
2023/05/11 03:38:39;;;;;;;3.10;1.00;;;21.10;99.90;;;;;;5035518;28;20198;-73
2023/05/11 03:41:10;;;;;;;7.47;1.25;;;21.10;99.90;;;;;;5035557;28;20194;-71
2023/05/11 03:43:42;;;;;;;2.42;1.00;;;21.10;99.90;;;;;;5035475;28;20201;-73
2023/05/11 03:46:16;;;;;;;3.42;1.00;;;21.10;99.90;;;;;;5035353;28;20212;-73
2023/05/11 03:48:49;;;;;;;3.45;1.10;;;21.10;99.90;;;;;;5034987;28;20214;-74
2023/05/11 03:51:21;;;;;;;4.25;1.17;;;21.10;99.90;;;;;;5034196;28;20196;-73
2023/05/11 03:53:52;;;;;;;3.85;1.08;;;21.00;99.90;;;;;;5035095;28;20194;-73
2023/05/11 03:56:23;;;;;;;4.50;1.17;;;21.00;99.90;;;;;;5034966;28;20197;-73
2023/05/11 03:58:55;;;;;;;3.38;0.93;;;21.00;99.90;;;;;;5031672;28;20246;-74
2023/05/11 04:01:27;;;;;;;5.18;1.20;;;21.00;99.90;;;;;;5035322;28;20665;-72
2023/05/11 04:04:00;;;;;;;2.30;1.10;;;21.00;99.90;;;;;;5034837;28;20199;-73
2023/05/11 04:06:31;;;;;;;4.15;1.35;;;21.00;99.90;;;;;;5038398;28;20201;-74
2023/05/11 04:09:03;;;;;;;3.70;1.98;;;21.10;99.90;;;;;;5035134;28;20229;-73
2023/05/11 04:11:37;;;;;;;7.88;2.10;;;21.00;99.90;;;;;;5033659;28;20680;-73
2023/05/11 04:14:08;;;;;;;7.07;2.00;;;21.10;99.90;;;;;;5031177;28;20280;-73
2023/05/11 04:16:39;;;;;;;5.88;2.03;;;21.10;99.90;;;;;;5046303;28;20204;-74
2023/05/11 04:19:12;;;;;;;6.93;2.13;;;21.00;99.90;;;;;;5033992;28;20210;-72
2023/05/11 04:21:43;;;;;;;6.20;2.15;;;21.00;99.90;;;;;;5030690;28;20198;-74
2023/05/11 04:24:14;;;;;;;7.20;2.20;;;21.00;99.90;;;;;;5039375;28;20196;-74
2023/05/11 04:26:45;;;;;;;5.35;2.10;;;21.00;99.90;;;;;;5036754;28;20199;-73
2023/05/11 04:29:19;;;;;;;7.05;2.50;;;21.00;99.90;;;;;;5025280;28;20706;-73
2023/05/11 04:31:50;;;;;;;6.75;1.88;;;21.00;99.90;;;;;;5016523;28;20230;-73
2023/05/11 04:34:24;;;;;;;7.22;2.05;;;21.10;99.90;;;;;;5033650;28;20282;-73
2023/05/11 04:58:07;;;;;;;4.85;1.90;;;20.60;99.90;;;;;;5841472;23;20593;-74
2023/05/11 05:00:38;;;;;;;4.90;1.98;;;20.60;99.90;;;;;;5027134;22;20238;-73
2023/05/11 05:03:09;;;;;;;6.47;2.00;;;20.60;99.90;;;;;;5071825;28;20198;-73
2023/05/11 05:05:41;;;;;;;6.93;2.30;;;20.50;99.90;;;;;;5073282;28;20189;-73
2023/05/11 05:08:12;;;;;;;4.22;1.80;;;20.50;99.90;;;;;;5073244;28;20217;-74
2023/05/11 05:10:43;;;;;;;5.82;1.92;;;20.50;99.90;;;;;;5073034;28;20211;-74
2023/05/11 05:13:17;;;;;;;5.97;2.10;;;20.50;99.90;;;;;;5073444;28;20651;-74
2023/05/11 05:15:48;;;;;;;6.57;1.98;;;20.50;99.90;;;;;;5073414;28;20189;-73
2023/05/11 05:18:19;;;;;;;7.25;2.65;;;20.40;99.90;;;;;;5073279;28;20193;-73
2023/05/11 05:20:52;;;;;;;5.53;1.65;;;20.40;99.90;;;;;;5073386;28;20201;-74
2023/05/11 05:23:23;;;;;;;4.13;1.90;;;20.40;99.90;;;;;;5073320;28;20196;-73
2023/05/11 05:25:54;;;;;;;4.88;1.90;;;20.30;99.90;;;;;;5073288;28;20193;-74
2023/05/11 05:28:27;;;;;;;4.03;1.50;;;20.40;99.90;;;;;;5056589;28;20221;-73
2023/05/11 05:30:58;;;;;;;3.95;1.38;;;20.40;99.90;;;;;;5052925;28;20189;-73
2023/05/11 05:33:29;;;;;;;5.80;1.55;;;20.40;99.90;;;;;;5053143;28;20197;-73
2023/05/11 05:36:00;;;;;;;3.25;1.38;;;20.30;99.90;;;;;;5053153;28;20190;-74
2023/05/11 05:38:31;;;;;;;4.82;1.42;;;20.20;99.90;;;;;;5053218;28;20186;-73
2023/05/11 05:41:02;;;;;;;4.35;1.58;;;20.20;99.90;;;;;;5053353;28;20185;-74
2023/05/11 05:43:35;;;;;;;5.55;1.70;;;20.20;99.90;;;;;;5052755;28;20204;-73
2023/05/11 05:46:07;;;;;;;4.90;1.40;;;20.20;99.90;;;;;;5053087;28;20219;-73
2023/05/11 05:48:38;;;;;;;6.85;1.73;;;20.20;99.90;;;;;;5053220;28;20263;-74
2023/05/11 05:51:09;;;;;;;4.57;1.60;;;20.10;99.90;;;;;;5052972;28;20190;-74
2023/05/11 05:53:40;;;;;;;4.22;1.58;;;20.00;99.90;;;;;;5053051;28;20200;-74
2023/05/11 05:56:11;;;;;;;6.10;1.40;;;19.90;99.90;;;;;;5052953;28;20193;-73
2023/05/11 05:58:45;;;;;;;5.97;1.50;;;19.90;99.90;;;;;;5052679;28;20576;-73
2023/05/11 06:01:16;;;;;;;7.97;1.83;;;19.80;99.90;;;;;;5052619;28;20245;-74
2023/05/11 06:03:47;;;;;;;4.07;1.83;;;19.70;99.90;;;;;;5053017;28;20225;-74
2023/05/11 06:06:18;;;;;;;5.50;1.70;;;19.70;99.90;;;;;;5053205;28;20197;-73
2023/05/11 06:08:50;;;;;;;6.35;1.65;;;19.70;99.90;;;;;;5053031;28;20217;-74
2023/05/11 06:11:21;;;;;;;6.15;1.90;;;19.70;99.90;;;;;;5052788;28;20647;-74
2023/05/11 06:13:54;;;;;;;3.33;1.55;;;19.50;99.90;;;;;;5053511;28;20197;-73
2023/05/11 06:16:25;;;;;;;5.32;2.00;;;19.50;99.90;;;;;;5037604;28;20198;-73
2023/05/11 06:18:56;;;;;;;8.13;2.42;;;19.50;99.90;;;;;;5036759;28;20249;-73
2023/05/11 06:21:28;;;;;;;6.85;2.70;;;19.50;99.90;;;;;;5037127;28;20654;-73
2023/05/11 06:23:59;;;;;;;6.65;2.20;;;19.30;99.90;;;;;;5045829;28;20204;-74
2023/05/11 06:26:30;;;;;;;4.28;1.83;;;19.30;99.90;;;;;;5048571;28;20676;-73
2023/05/11 06:29:03;;;;;;;5.47;2.00;;;19.20;99.90;;;;;;5047860;28;20217;-74
2023/05/11 06:31:34;;;;;;;6.70;2.10;;;19.20;99.90;;;;;;5044001;28;20204;-74
2023/05/11 06:34:08;;;;;;;6.20;1.77;;;19.10;99.90;;;;;;5055257;28;20208;-74
2023/05/11 06:36:39;;;;;;;4.63;2.17;;;19.00;99.90;;;;;;5054013;28;20187;-74
2023/05/11 06:39:10;;;;;;;6.70;2.10;;;19.00;99.90;;;;;;5043496;28;20198;-73
2023/05/11 06:41:41;;;;;;;8.43;2.42;;;18.90;99.90;;;;;;5038021;28;20198;-73
2023/05/11 06:44:14;;;;;;;4.85;2.00;;;18.80;99.90;;;;;;5056112;28;20190;-73
2023/05/11 06:46:45;;;;;;;7.63;2.20;;;18.80;99.90;;;;;;5056238;28;20652;-73
2023/05/11 06:49:16;;;;;;;3.28;1.90;;;18.80;99.90;;;;;;5056111;28;20213;-73
2023/05/11 06:51:47;;;;;;;6.75;1.95;;;18.70;99.90;;;;;;5055452;28;20558;-73
2023/05/11 06:54:19;;;;;;;5.53;1.75;;;18.70;99.90;;;;;;5055928;28;20640;-73
2023/05/11 06:56:50;;;;;;;5.50;2.10;;;18.60;99.90;;;;;;5056205;28;20201;-73
2023/05/11 06:59:23;;;;;;;6.05;2.03;;;18.60;99.90;;;;;;5055852;28;20200;-73
2023/05/11 07:01:54;;;;;;;5.38;1.80;;;18.50;99.90;;;;;;5055436;28;20237;-73
2023/05/11 07:04:25;;;;;;;7.88;2.15;;;18.40;99.90;;;;;;5036005;28;20216;-73
2023/05/11 07:06:56;;;;;;;6.60;2.45;;;18.40;99.90;;;;;;5035991;28;20192;-73
2023/05/11 07:09:27;;;;;;;6.13;2.53;;;18.30;99.90;;;;;;5035881;28;20264;-73
2023/05/11 07:11:59;;;;;;;6.22;2.53;;;18.30;99.90;;;;;;5041569;28;20524;-74
2023/05/11 07:14:32;;;;;;;6.18;2.60;;;18.20;99.90;;;;;;5055752;28;20651;-73
2023/05/11 07:17:03;;;;;;;7.03;2.45;;;18.20;99.90;;;;;;5055742;28;20193;-73
2023/05/11 07:19:34;;;;;;;4.13;1.80;;;18.10;99.90;;;;;;5055683;28;20640;-73
2023/05/11 07:22:05;;;;;;;5.25;2.05;;;18.00;99.90;;;;;;5051268;28;20212;-73
2023/05/11 07:24:36;;;;;;;6.25;2.28;;;18.00;99.90;;;;;;5048759;28;20194;-73
2023/05/11 07:27:08;;;;;;;4.82;1.92;;;18.00;99.90;;;;;;5042664;28;20578;-74
2023/05/11 07:29:41;;;;;;;6.00;1.73;;;17.90;99.90;;;;;;5052937;28;20306;-74
2023/05/11 07:32:13;;;;;;;4.65;1.92;;;17.90;99.90;;;;;;5053532;28;20197;-74
2023/05/11 07:34:45;;;;;;;7.35;2.10;;;17.80;99.90;;;;;;5053979;28;20194;-74
2023/05/11 07:37:16;;;;;;;4.30;1.88;;;17.80;99.90;;;;;;5055230;28;20197;-73
2023/05/11 07:39:47;;;;;;;8.90;2.38;;;17.80;99.90;;;;;;5049228;28;20217;-74
2023/05/11 07:42:18;;;;;;;6.90;2.38;;;17.70;99.90;;;;;;5042659;28;20201;-74
2023/05/11 07:44:51;;;;;;;5.43;2.50;;;17.60;99.90;;;;;;5053041;28;20645;-74
2023/05/11 07:47:23;;;;;;;5.10;2.50;;;17.60;99.90;;;;;;5048043;28;20216;-74
2023/05/11 07:49:54;;;;;;;6.25;2.88;;;17.50;99.90;;;;;;5043205;28;20221;-74
2023/05/11 07:52:25;;;;;;;4.47;2.15;;;17.50;99.90;;;;;;5046450;28;20664;-74
2023/05/11 07:54:56;;;;;;;4.88;2.20;;;17.40;99.90;;;;;;5049852;28;20202;-74
2023/05/11 07:57:30;;;;;;;4.22;2.20;;;17.30;99.90;;;;;;5047405;28;20216;-74
2023/05/11 08:00:04;;;;;;;4.95;2.55;;;17.30;99.90;;;;;;5046820;28;20313;-74
2023/05/11 08:02:35;;;;;;;6.28;2.58;;;17.30;99.90;;;;;;5044872;28;20189;-74
2023/05/11 08:05:06;;;;;;;7.15;2.80;;;17.20;99.90;;;;;;5039193;28;20661;-74
2023/05/11 08:07:37;;;;;;;7.05;2.47;;;17.20;99.90;;;;;;5045732;28;20193;-74
2023/05/11 08:10:09;;;;;;;7.60;2.38;;;17.10;99.90;;;;;;5041429;28;20672;-74
2023/05/11 08:12:40;;;;;;;6.95;2.25;;;17.10;99.90;;;;;;5045237;28;20599;-74
2023/05/11 08:15:14;;;;;;;5.40;2.30;;;17.00;99.90;;;;;;5043249;28;20198;-74
2023/05/11 08:17:45;;;;;;;5.35;2.03;;;17.00;99.90;;;;;;5046651;28;20205;-74
2023/05/11 08:20:16;;;;;;;4.97;2.00;;;16.90;99.90;;;;;;5047088;28;20572;-74
2023/05/11 08:22:48;;;;;;;8.02;2.00;;;16.90;99.90;;;;;;5051625;28;20200;-74
2023/05/11 08:25:19;;;;;;;5.85;1.90;;;16.90;99.90;;;;;;5045166;28;20202;-74
2023/05/11 08:27:50;;;;;;;5.30;1.63;;;16.90;99.90;;;;;;5039406;28;20558;-74
2023/05/11 08:30:23;;;;;;;4.43;1.92;;;16.90;99.90;;;;;;5041581;28;20229;-74
2023/05/11 08:32:54;;;;;;;4.72;1.60;;;16.90;99.90;;;;;;5041122;28;20281;-74
2023/05/11 08:35:26;;;;;;;7.97;2.80;;;16.90;99.90;;;;;;5042711;28;20679;-74
2023/05/11 08:37:57;;;;;;;5.80;2.80;;;16.90;99.90;;;;;;5046424;28;20292;-74
2023/05/11 08:40:32;;;;;;;6.20;2.50;;;16.90;99.90;;;;;;5049035;28;20201;-74
2023/05/11 08:43:06;;;;;;;7.72;2.33;;;16.80;99.90;;;;;;5037400;28;20206;-74
2023/05/11 08:45:40;;;;;;;6.90;2.70;;;16.80;99.90;;;;;;5040063;28;20193;-74
2023/05/11 08:48:11;;;;;;;5.40;2.42;;;16.80;99.90;;;;;;5050719;28;20208;-74
2023/05/11 08:50:42;;;;;;;5.50;2.28;;;16.70;99.90;;;;;;5051631;28;20202;-74
2023/05/11 08:53:13;;;;;;;6.35;2.40;;;16.70;99.90;;;;;;5043013;28;20194;-74
2023/05/11 08:55:45;;;;;;;7.57;2.70;;;16.60;99.90;;;;;;5039869;28;20198;-74
2023/05/11 08:58:18;;;;;;;6.38;2.38;;;16.60;99.90;;;;;;5049726;28;20212;-74
2023/05/11 09:00:52;;;;;;;7.93;2.50;;;16.50;99.90;;;;;;5038422;28;20325;-74
2023/05/11 09:03:23;;;;;;;7.47;2.58;;;16.50;99.90;;;;;;5044340;28;20268;-74
2023/05/11 09:05:55;;;;;;;7.07;2.75;;;16.40;99.90;;;;;;5045969;28;20674;-74
2023/05/11 09:08:28;;;;;;;9.65;2.70;;;16.40;99.90;;;;;;5045178;28;20652;-74
2023/05/11 09:11:00;;;;;;;8.00;2.80;;;16.30;99.90;;;;;;5047757;28;20202;-74
2023/05/11 09:13:31;;;;;;;7.43;3.70;;;16.30;99.90;;;;;;5038548;28;20198;-74
2023/05/11 09:16:04;;;;;;;6.50;2.80;;;16.30;99.90;;;;;;5042966;28;20197;-75
2023/05/11 09:18:35;;;;;;;5.70;2.58;;;16.30;99.90;;;;;;5033158;28;20202;-74
2023/05/11 09:21:06;;;;;;;6.93;2.80;;;16.30;99.90;;;;;;5033424;28;20209;-75
2023/05/11 09:23:38;;;;;;;6.55;2.40;;;16.30;99.90;;;;;;5041082;28;20198;-74
2023/05/11 09:26:16;;;;;;;8.13;2.67;;;16.20;99.90;;;;;;5042484;28;20205;-74
2023/05/11 09:28:55;;;;;;;4.60;2.38;;;16.20;99.90;;;;;;5042451;28;20224;-74
2023/05/11 09:31:41;;;;;;;7.07;2.58;;;16.20;99.90;;;;;;5043947;28;20681;-74
2023/05/11 09:34:14;;;;;;;5.32;2.50;;;16.20;99.90;;;;;;5050538;28;20675;-74
2023/05/11 09:36:46;;;;;;;5.50;2.30;;;16.20;99.90;;;;;;5048337;28;20255;-74
2023/05/11 09:39:18;;;;;;;6.68;2.58;;;16.10;99.90;;;;;;5044706;28;20201;-74
2023/05/11 09:41:49;;;;;;;4.72;2.30;;;16.10;99.90;;;;;;5046523;28;20201;-74
2023/05/11 09:44:20;;;;;;;6.53;2.28;;;16.10;99.90;;;;;;5042548;28;20201;-74
2023/05/11 09:46:53;;;;;;;5.53;2.30;;;16.10;99.90;;;;;;5050146;28;20661;-74
2023/05/11 09:49:32;;;;;;;6.13;2.20;;;16.00;99.90;;;;;;5051620;28;20315;-74
2023/05/11 09:52:04;;;;;;;7.28;2.38;;;16.00;99.90;;;;;;5044238;28;20538;-74
2023/05/11 09:54:46;;;;;;;4.95;2.25;;;16.00;99.90;;;;;;5040079;28;20190;-74
2023/05/11 09:57:28;;;;;;;7.35;2.25;;;15.90;99.90;;;;;;5047210;28;20292;-74
2023/05/11 10:00:00;;;;;;;7.50;2.63;;;15.90;99.90;;;;;;5040319;28;20221;-74
2023/05/11 10:02:34;;;;;;;5.55;2.20;;;15.90;99.90;;;;;;5049313;28;20595;-74
2023/05/11 10:05:14;;;;;;;6.72;2.55;;;15.90;99.90;;;;;;5039836;28;20204;-74
2023/05/11 10:07:45;;;;;;;6.78;2.53;;;15.90;99.90;;;;;;5047103;28;20197;-74
2023/05/11 10:10:17;;;;;;;5.30;2.17;;;15.80;99.90;;;;;;5042712;28;20217;-73
2023/05/11 10:12:48;;;;;;;6.55;2.60;;;15.90;99.90;;;;;;5043684;28;20683;-74
2023/05/11 10:15:24;;;;;;;4.28;2.22;;;15.80;99.90;;;;;;5052147;28;20197;-74
2023/05/11 10:17:58;;;;;;;9.23;2.60;;;15.80;99.90;;;;;;5038243;28;20281;-74
2023/05/11 10:20:30;;;;;;;7.18;2.60;;;15.80;99.90;;;;;;5043258;28;20277;-74
2023/05/11 10:23:01;;;;;;;6.30;2.55;;;15.80;99.90;;;;;;5033398;28;20201;-74
2023/05/11 10:25:32;;;;;;;7.35;2.83;;;15.70;99.90;;;;;;5045083;28;20661;-74
2023/05/11 10:28:04;;;;;;;8.27;2.85;;;15.70;99.90;;;;;;5054840;28;20212;-74
2023/05/11 10:30:37;;;;;;;6.15;2.67;;;15.70;99.90;;;;;;5051336;28;20213;-74
2023/05/11 10:33:11;;;;;;;6.30;2.85;;;15.60;99.90;;;;;;5053550;28;20717;-74
2023/05/11 10:35:46;;;;;;;8.90;3.10;;;15.70;99.90;;;;;;5043212;28;20194;-74
2023/05/11 10:38:20;;;;;;;7.22;3.25;;;15.60;99.90;;;;;;5041550;28;20198;-74
2023/05/11 10:40:53;;;;;;;10.35;4.03;;;15.60;99.90;;;;;;5044302;28;20242;-74
2023/05/11 10:43:46;;;;;;;8.75;3.50;;;15.60;99.90;;;;;;5041797;28;20202;-74
2023/05/11 10:46:42;;;;;;;8.52;3.30;;;15.50;99.90;;;;;;5042304;28;20223;-74
2023/05/11 10:49:28;;;;;;;7.90;3.17;;;15.50;99.90;;;;;;5047950;28;20213;-74
2023/05/11 10:52:24;;;;;;;8.55;3.25;;;15.40;99.90;;;;;;5042976;28;20235;-74
2023/05/11 10:55:10;;;;;;;7.50;3.50;;;15.50;99.90;;;;;;5045550;28;20205;-74
2023/05/11 10:57:56;;;;;;;5.30;3.13;;;15.40;99.90;;;;;;5048178;28;20206;-74
2023/05/11 11:01:02;;;;;;;5.68;3.08;;;15.40;99.90;;;;;;5035882;28;20599;-74
2023/05/11 11:03:33;;;;;;;7.43;2.92;;;15.40;99.90;;;;;;5047990;28;20198;-74
2023/05/11 11:06:06;;;;;;;7.18;3.08;;;15.40;99.90;;;;;;5049638;28;20198;-74
2023/05/11 11:08:58;;;;;;;7.38;2.78;;;15.30;99.90;;;;;;5048969;28;20205;-74
2023/05/11 11:11:34;;;;;;;6.28;3.13;;;15.30;99.90;;;;;;5036613;28;20732;-74
2023/05/11 11:14:06;;;;;;;6.40;2.95;;;15.30;99.90;;;;;;5047938;28;20198;-74
2023/05/11 11:16:37;;;;;;;8.27;2.90;;;15.30;99.90;;;;;;5046695;28;20202;-74
2023/05/11 11:19:39;;;;;;;5.72;2.88;;;15.30;99.90;;;;;;5053694;28;20212;-74
2023/05/11 11:22:50;;;;;;;9.00;2.80;;;15.30;99.90;;;;;;5047528;28;20193;-74
2023/05/11 11:25:54;;;;;;;5.20;2.42;;;15.30;99.90;;;;;;5051620;28;20209;-74
2023/05/11 11:28:26;;;;;;;7.78;2.50;;;15.30;99.90;;;;;;5046384;28;20205;-74
2023/05/11 11:31:26;;;;;;;7.35;2.58;;;15.30;99.90;;;;;;5054415;28;20327;-74
2023/05/11 11:34:00;;;;;;;6.68;2.53;;;15.30;99.90;;;;;;5031725;28;20213;-74
2023/05/11 11:37:07;;;;;;;6.05;2.35;;;15.30;99.90;;;;;;5047519;28;20281;-74
2023/05/11 11:39:59;;;;;;;6.03;2.60;;;15.30;99.90;;;;;;5044765;28;20201;-73
2023/05/11 11:42:38;;;;;;;6.07;2.53;;;15.20;99.90;;;;;;5048454;28;20193;-74
2023/05/11 11:45:33;;;;;;;4.78;2.38;;;15.20;99.90;;;;;;5055203;28;20604;-74
2023/05/11 11:48:16;;;;;;;6.45;2.70;;;15.20;99.90;;;;;;5053263;28;20198;-74
2023/05/11 11:50:48;;;;;;;6.70;2.65;;;15.20;99.90;;;;;;5054288;28;20224;-74
2023/05/11 11:54:03;;;;;;;5.15;2.70;;;15.10;99.90;;;;;;5050502;28;20536;-74
2023/05/11 11:56:44;;;;;;;6.93;2.50;;;15.10;99.90;;;;;;4989741;28;20550;-73
2023/05/11 11:59:18;;;;;;;6.45;2.28;;;15.10;99.90;;;;;;5045970;28;20227;-74
2023/05/11 12:01:55;;;;;;;6.97;2.30;;;15.10;99.90;;;;;;5046640;28;20232;-74
2023/05/11 12:04:38;;;;;;;7.60;2.55;;;15.00;99.90;;;;;;5040933;28;20279;-74
2023/05/11 12:07:13;;;;;;;5.03;2.38;;;15.00;99.90;;;;;;5053637;28;20201;-74
2023/05/11 12:09:47;;;;;;;5.50;2.20;;;15.00;99.90;;;;;;5046113;28;20575;-74
2023/05/11 12:12:20;;;;;;;6.07;2.25;;;15.00;99.90;;;;;;5038988;28;20689;-74
2023/05/11 12:14:51;;;;;;;6.43;2.33;;;15.00;99.90;;;;;;5040429;28;20202;-73
2023/05/11 12:17:33;;;;;;;4.13;2.33;;;15.00;99.90;;;;;;5034898;28;20190;-74
2023/05/11 12:20:18;;;;;;;4.97;2.67;;;15.00;99.90;;;;;;5034418;28;20198;-74
2023/05/11 12:22:49;;;;;;;6.10;2.63;;;15.00;99.90;;;;;;5044085;28;20190;-74
2023/05/11 12:25:21;;;;;;;8.80;3.00;;;14.90;99.90;;;;;;5044867;28;20190;-74
2023/05/11 12:27:57;;;;;;;5.88;2.70;;;15.00;99.90;;;;;;5047074;28;20209;-74
2023/05/11 12:30:28;;;;;;;5.65;2.75;;;14.90;99.90;;;;;;5042233;28;20225;-73
2023/05/11 12:33:00;;;;;;;6.65;2.53;;;15.00;99.90;;;;;;5052743;28;20204;-74
2023/05/11 12:35:32;;;;;;;6.70;3.05;;;15.00;99.90;;;;;;5053224;28;20194;-74
2023/05/11 12:38:04;;;;;;;6.05;2.80;;;15.00;99.90;;;;;;5050105;28;20198;-74
2023/05/11 12:40:35;;;;;;;6.68;2.80;;;15.00;99.90;;;;;;5052371;28;20574;-74
2023/05/11 12:43:08;;;;;;;4.95;2.42;;;14.90;99.90;;;;;;5037984;28;20668;-74
2023/05/11 12:45:39;;;;;;;4.97;2.80;;;14.90;99.90;;;;;;5036038;28;20202;-74
2023/05/11 12:48:11;;;;;;;8.13;3.13;;;14.90;99.90;;;;;;5044040;28;20198;-74
2023/05/11 12:50:46;;;;;;;7.07;2.70;;;14.90;99.90;;;;;;5028241;28;20222;-74
2023/05/11 12:53:19;;;;;;;5.80;2.65;;;14.90;99.90;;;;;;5051338;28;20196;-74
2023/05/11 12:56:00;;;;;;;8.85;2.40;;;14.90;99.90;;;;;;5036083;28;20201;-74
2023/05/11 12:58:39;;;;;;;6.45;2.65;;;14.80;99.90;;;;;;5052363;28;20193;-74
2023/05/11 13:01:14;;;;;;;6.10;2.55;;;14.80;99.90;;;;;;5045307;28;20241;-74
2023/05/11 13:03:48;;;;;;;6.30;2.88;;;14.80;99.90;;;;;;5050669;28;20661;-74
2023/05/11 13:06:22;;;;;;;7.45;3.10;;;14.80;99.90;;;;;;5048793;28;20201;-74
2023/05/11 13:08:53;;;;;;;6.68;2.88;;;14.70;99.90;;;;;;5046594;28;20200;-74
2023/05/11 13:11:26;;;;;;;9.13;2.90;;;14.70;99.90;;;;;;5051723;28;21039;-74
2023/05/11 13:13:59;;;;;;;7.38;2.85;;;14.70;99.90;;;;;;5033405;28;20190;-74
2023/05/11 13:16:32;;;;;;;8.65;3.20;;;14.70;99.90;;;;;;5033636;28;20217;-74
2023/05/11 13:19:04;;;;;;;6.18;2.95;;;14.70;99.90;;;;;;5033593;28;20616;-74
2023/05/11 13:21:36;;;;;;;5.47;3.00;;;14.70;99.90;;;;;;5035957;28;20207;-74
2023/05/11 13:24:07;;;;;;;6.40;2.95;;;14.60;99.90;;;;;;5033607;28;20200;-74
2023/05/11 13:26:38;;;;;;;8.43;3.08;;;14.60;99.90;;;;;;5033679;28;20524;-74
2023/05/11 13:29:11;;;;;;;5.50;2.75;;;14.60;99.90;;;;;;5033209;28;20190;-74
2023/05/11 13:31:49;;;;;;;7.90;2.92;;;14.60;99.90;;;;;;5034126;28;20214;-74
2023/05/11 13:34:20;;;;;;;7.45;3.22;;;14.60;99.90;;;;;;5032296;28;20194;-74
2023/05/11 13:36:52;;;;;;;5.45;3.10;;;14.50;99.90;;;;;;5029869;28;20209;-73
2023/05/11 13:39:23;;;;;;;6.50;3.30;;;14.50;99.90;;;;;;5045562;28;20204;-74
2023/05/11 13:41:55;;;;;;;7.60;3.40;;;14.50;99.90;;;;;;5044502;28;20252;-74
2023/05/11 13:44:28;;;;;;;9.38;3.95;;;14.40;99.90;;;;;;5041153;28;20205;-74